Time;durP1;ratioP1;P1;durP2;ratioP2;P2;SDS_P1;SDS_P2;PMS_P1;PMS_P2;Temp;Humidity;BMP_temperature;BMP_pressure;BME280_temperature;BME280_humidity;BME280_pressure;Samples;Min_cycle;Max_cycle;Signal;HPM_P1;HPM_P2
2022/09/03 00:02:23;;;;;;;3.97;3.70;;;;;;;;;;5017126;28;20807;-67
2022/09/03 00:05:08;;;;;;;3.77;3.53;;;;;;;;;;5017136;28;20503;-66
2022/09/03 00:07:39;;;;;;;4.67;4.33;;;;;;;;;;5017033;28;20407;-67
2022/09/03 00:10:08;;;;;;;8.40;4.30;;;;;;;;;;5017071;28;20876;-68
2022/09/03 00:12:38;;;;;;;4.40;4.20;;;;;;;;;;5016924;28;20397;-72
2022/09/03 00:15:06;;;;;;;4.20;3.90;;;;;;;;;;5016944;28;20946;-67
2022/09/03 00:17:43;;;;;;;5.70;3.87;;;;;;;;;;5016906;28;20756;-67
2022/09/03 00:20:12;;;;;;;4.10;3.73;;;;;;;;;;5016866;28;20521;-68
2022/09/03 00:22:39;;;;;;;4.90;4.43;;;;;;;;;;5016903;28;20841;-67
2022/09/03 00:25:13;;;;;;;4.80;4.20;;;;;;;;;;5016737;28;20946;-67
2022/09/03 00:27:39;;;;;;;7.80;4.07;;;;;;;;;;5016928;28;20417;-67
2022/09/03 00:30:09;;;;;;;5.10;3.50;;;;;;;;;;5016641;28;20409;-67
2022/09/03 00:32:47;;;;;;;4.47;4.23;;;;;;;;;;5016619;28;20441;-67
2022/09/03 00:35:23;;;;;;;4.33;4.00;;;;;;;;;;5016577;28;20779;-68
2022/09/03 00:37:51;;;;;;;7.07;4.70;;;;;;;;;;5016531;28;20819;-66
2022/09/03 00:40:37;;;;;;;4.57;4.33;;;;;;;;;;5016365;28;20468;-68
2022/09/03 00:43:12;;;;;;;4.90;4.43;;;;;;;;;;5025193;28;20429;-67
2022/09/03 00:45:43;;;;;;;4.07;3.87;;;;;;;;;;5016333;28;20412;-66
2022/09/03 00:48:21;;;;;;;10.10;4.90;;;;;;;;;;5016318;28;20491;-67
2022/09/03 00:50:49;;;;;;;3.77;3.67;;;;;;;;;;5016307;28;20458;-67
2022/09/03 00:53:33;;;;;;;4.90;4.60;;;;;;;;;;5016009;28;20455;-67
2022/09/03 00:56:02;;;;;;;6.30;4.03;;;;;;;;;;5016209;28;20444;-66
2022/09/03 00:58:42;;;;;;;3.90;3.33;;;;;;;;;;5016102;28;20451;-67
2022/09/03 01:01:16;;;;;;;3.67;3.40;;;;;;;;;;5016394;28;20409;-68
2022/09/03 01:03:50;;;;;;;7.20;4.40;;;;;;;;;;5016079;28;20468;-66
2022/09/03 01:06:39;;;;;;;4.67;4.27;;;;;;;;;;5015357;28;20409;-67
2022/09/03 01:09:34;;;;;;;4.10;3.80;;;;;;;;;;5023856;28;20448;-66
2022/09/03 01:12:06;;;;;;;5.97;4.40;;;;;;;;;;5019229;28;20433;-67
2022/09/03 01:14:35;;;;;;;4.90;3.60;;;;;;;;;;5015821;28;20770;-67
2022/09/03 01:17:20;;;;;;;8.47;3.77;;;;;;;;;;5015756;28;20443;-67
2022/09/03 01:19:55;;;;;;;4.20;3.90;;;;;;;;;;5015671;28;20884;-67
2022/09/03 01:22:40;;;;;;;4.07;3.97;;;;;;;;;;5015730;28;20405;-67
2022/09/03 01:25:16;;;;;;;3.90;3.70;;;;;;;;;;5015576;28;20397;-68
2022/09/03 01:28:00;;;;;;;5.70;3.87;;;;;;;;;;5015568;28;20408;-67
2022/09/03 01:30:27;;;;;;;7.10;3.33;;;;;;;;;;5015525;28;20396;-67
2022/09/03 01:33:02;;;;;;;3.57;3.37;;;;;;;;;;5015533;28;20840;-67
2022/09/03 01:35:38;;;;;;;3.83;3.50;;;;;;;;;;5015457;28;20883;-67
2022/09/03 01:38:11;;;;;;;4.33;4.00;;;;;;;;;;5015402;28;20401;-67
2022/09/03 01:40:56;;;;;;;3.80;3.50;;;;;;;;;;5015268;28;20469;-67
2022/09/03 01:43:31;;;;;;;4.30;3.90;;;;;;;;;;5015310;28;20409;-68
2022/09/03 01:46:03;;;;;;;3.70;3.53;;;;;;;;;;5015199;28;20392;-67
2022/09/03 01:48:39;;;;;;;3.87;3.70;;;;;;;;;;5015162;28;20408;-67
2022/09/03 01:51:09;;;;;;;6.57;3.40;;;;;;;;;;5015007;28;20428;-67
2022/09/03 01:53:45;;;;;;;5.23;3.50;;;;;;;;;;5015370;28;20468;-67
2022/09/03 01:56:33;;;;;;;4.00;3.80;;;;;;;;;;5015246;28;20429;-68
2022/09/03 01:59:02;;;;;;;5.77;3.97;;;;;;;;;;5014945;28;20452;-67
2022/09/03 02:01:41;;;;;;;3.57;3.47;;;;;;;;;;5014994;28;20396;-67
2022/09/03 02:04:16;;;;;;;3.63;3.43;;;;;;;;;;5014915;28;20413;-68
2022/09/03 02:06:43;;;;;;;3.73;3.63;;;;;;;;;;5014853;28;20495;-67
2022/09/03 02:09:09;;;;;;;5.70;3.70;;;;;;;;;;5014794;28;20408;-67
2022/09/03 02:11:36;;;;;;;4.70;3.30;;;;;;;;;;5015014;28;20423;-67
2022/09/03 02:14:04;;;;;;;4.00;3.70;;;;;;;;;;5014722;28;20811;-67
2022/09/03 02:16:32;;;;;;;4.60;3.47;;;;;;;;;;5014725;28;20398;-67
2022/09/03 02:19:01;;;;;;;10.30;4.20;;;;;;;;;;5014534;28;20476;-67
2022/09/03 02:21:31;;;;;;;4.37;3.87;;;;;;;;;;5014868;28;20421;-69
2022/09/03 02:23:57;;;;;;;4.63;4.20;;;;;;;;;;5014621;28;20415;-67
2022/09/03 02:26:24;;;;;;;3.97;3.67;;;;;;;;;;5014498;28;20406;-67
2022/09/03 02:28:50;;;;;;;5.07;4.53;;;;;;;;;;5014475;28;20405;-67
2022/09/03 02:31:16;;;;;;;4.17;3.87;;;;;;;;;;5014406;28;20413;-67
2022/09/03 02:33:44;;;;;;;5.40;4.30;;;;;;;;;;5014405;28;20409;-67
2022/09/03 02:36:12;;;;;;;3.47;3.20;;;;;;;;;;5014327;28;20444;-67
2022/09/03 02:38:40;;;;;;;4.23;3.90;;;;;;;;;;5014314;28;20409;-67
2022/09/03 02:41:06;;;;;;;4.17;3.97;;;;;;;;;;5014365;28;20853;-68
2022/09/03 02:43:51;;;;;;;3.73;3.40;;;;;;;;;;5014278;28;20431;-67
2022/09/03 02:46:23;;;;;;;4.50;4.20;;;;;;;;;;5014148;28;20418;-67
2022/09/03 02:48:49;;;;;;;3.60;3.50;;;;;;;;;;5014102;28;20400;-67
2022/09/03 02:51:15;;;;;;;4.03;3.83;;;;;;;;;;5014002;28;20504;-67
2022/09/03 02:53:41;;;;;;;5.03;3.10;;;;;;;;;;5014190;28;20404;-68
2022/09/03 02:56:07;;;;;;;3.73;3.50;;;;;;;;;;5014259;28;20417;-67
2022/09/03 02:58:33;;;;;;;3.50;3.20;;;;;;;;;;5013940;28;20408;-67
2022/09/03 03:01:00;;;;;;;4.93;3.30;;;;;;;;;;5013878;28;20476;-67
2022/09/03 03:03:26;;;;;;;2.93;2.83;;;;;;;;;;5014002;28;20789;-68
2022/09/03 03:05:54;;;;;;;3.07;2.77;;;;;;;;;;5013883;28;20429;-68
2022/09/03 03:08:22;;;;;;;3.10;2.90;;;;;;;;;;5014159;28;20405;-75
2022/09/03 03:10:50;;;;;;;7.80;4.20;;;;;;;;;;5014135;28;20409;-77
2022/09/03 03:13:17;;;;;;;3.60;3.30;;;;;;;;;;5013808;28;20408;-67
2022/09/03 03:15:43;;;;;;;5.97;3.80;;;;;;;;;;5013868;28;20411;-67
2022/09/03 03:18:11;;;;;;;3.40;3.30;;;;;;;;;;5013854;28;20406;-77
2022/09/03 03:20:37;;;;;;;3.77;3.67;;;;;;;;;;5013717;28;20465;-67
2022/09/03 03:23:04;;;;;;;6.53;3.27;;;;;;;;;;5013837;28;20497;-75
2022/09/03 03:25:31;;;;;;;3.20;3.00;;;;;;;;;;5013740;28;20877;-67
2022/09/03 03:27:57;;;;;;;3.30;3.20;;;;;;;;;;5014008;28;20440;-68
2022/09/03 03:30:23;;;;;;;3.33;3.13;;;;;;;;;;5016327;28;20916;-68
2022/09/03 03:32:49;;;;;;;3.10;3.00;;;;;;;;;;5017688;28;20802;-67
2022/09/03 03:35:15;;;;;;;3.10;3.00;;;;;;;;;;5017732;28;20414;-71
2022/09/03 03:37:41;;;;;;;3.57;3.20;;;;;;;;;;5017966;28;20953;-71
2022/09/03 03:40:07;;;;;;;3.07;2.97;;;;;;;;;;5017511;28;20483;-68
2022/09/03 03:42:34;;;;;;;3.03;2.93;;;;;;;;;;5017593;28;20408;-68
2022/09/03 03:45:01;;;;;;;9.87;3.13;;;;;;;;;;5017597;28;20884;-68
2022/09/03 03:47:27;;;;;;;3.07;2.87;;;;;;;;;;5017547;28;20870;-67
2022/09/03 03:49:53;;;;;;;3.80;3.50;;;;;;;;;;5017486;28;20506;-69
2022/09/03 03:52:19;;;;;;;3.57;3.03;;;;;;;;;;5017263;28;20956;-67
2022/09/03 03:54:45;;;;;;;3.23;3.10;;;;;;;;;;5017363;28;20903;-67
2022/09/03 03:57:11;;;;;;;5.33;2.90;;;;;;;;;;5017543;28;20543;-67
2022/09/03 03:59:37;;;;;;;3.07;2.97;;;;;;;;;;5017149;28;20471;-67
2022/09/03 04:02:03;;;;;;;3.17;3.07;;;;;;;;;;5017176;28;20393;-67
2022/09/03 04:04:29;;;;;;;3.37;3.07;;;;;;;;;;5017142;28;20570;-67
2022/09/03 04:06:55;;;;;;;3.47;3.30;;;;;;;;;;5017028;28;20420;-67
2022/09/03 04:09:21;;;;;;;3.50;3.20;;;;;;;;;;5017094;28;20402;-67
2022/09/03 04:11:48;;;;;;;3.13;2.70;;;;;;;;;;5017090;28;20437;-66
2022/09/03 04:14:14;;;;;;;2.93;2.73;;;;;;;;;;5016963;28;20868;-67
2022/09/03 04:16:40;;;;;;;3.33;3.23;;;;;;;;;;5016993;28;20410;-67
2022/09/03 04:19:06;;;;;;;3.33;3.23;;;;;;;;;;5017075;28;20550;-67
2022/09/03 04:21:32;;;;;;;4.10;3.40;;;;;;;;;;5017131;28;20886;-67
2022/09/03 04:23:58;;;;;;;3.90;3.60;;;;;;;;;;5016769;28;20408;-67
2022/09/03 04:26:30;;;;;;;3.53;3.33;;;;;;;;;;5016692;28;20466;-67
2022/09/03 04:28:56;;;;;;;3.20;2.80;;;;;;;;;;5016933;28;20435;-67
2022/09/03 04:31:22;;;;;;;3.03;2.83;;;;;;;;;;5016698;28;20416;-73
2022/09/03 04:33:48;;;;;;;3.07;2.97;;;;;;;;;;5016613;28;20435;-70
2022/09/03 04:36:18;;;;;;;3.30;3.07;;;;;;;;;;5016749;28;20475;-67
2022/09/03 04:38:45;;;;;;;2.63;2.50;;;;;;;;;;5016444;28;20405;-67
2022/09/03 04:41:13;;;;;;;7.33;3.10;;;;;;;;;;5015172;28;20411;-77
2022/09/03 04:43:41;;;;;;;3.00;2.83;;;;;;;;;;5016581;28;20487;-66
2022/09/03 04:46:07;;;;;;;7.37;3.13;;;;;;;;;;5016369;28;20394;-76
2022/09/03 04:48:34;;;;;;;6.10;3.00;;;;;;;;;;5031864;28;20782;-67
2022/09/03 04:51:04;;;;;;;3.07;2.87;;;;;;;;;;5016551;28;20458;-67
2022/09/03 04:53:30;;;;;;;3.23;3.03;;;;;;;;;;5016595;28;20439;-67
2022/09/03 04:55:56;;;;;;;2.97;2.87;;;;;;;;;;5016130;28;20459;-75
2022/09/03 04:58:22;;;;;;;4.93;3.10;;;;;;;;;;5016148;28;20416;-69
2022/09/03 05:00:48;;;;;;;3.60;3.40;;;;;;;;;;5016011;28;20459;-67
2022/09/03 05:03:14;;;;;;;4.23;3.47;;;;;;;;;;5016170;28;20728;-67
2022/09/03 05:05:40;;;;;;;4.13;2.90;;;;;;;;;;5016089;28;20408;-65
2022/09/03 05:08:06;;;;;;;3.10;3.00;;;;;;;;;;5015990;28;20815;-66
2022/09/03 05:10:32;;;;;;;3.50;3.30;;;;;;;;;;5015912;28;20405;-68
2022/09/03 05:13:01;;;;;;;3.40;3.20;;;;;;;;;;5016013;28;20445;-66
2022/09/03 05:15:28;;;;;;;3.20;3.20;;;;;;;;;;5015823;28;20547;-66
2022/09/03 05:17:58;;;;;;;4.23;2.70;;;;;;;;;;5015784;28;20407;-66
2022/09/03 05:20:24;;;;;;;3.63;3.33;;;;;;;;;;5015609;28;20865;-66
2022/09/03 05:22:50;;;;;;;3.70;3.60;;;;;;;;;;5015998;28;20408;-66
2022/09/03 05:25:16;;;;;;;3.53;3.43;;;;;;;;;;5015595;28;20404;-66
2022/09/03 05:27:42;;;;;;;3.37;3.23;;;;;;;;;;5015587;28;20433;-65
2022/09/03 05:30:08;;;;;;;3.90;3.60;;;;;;;;;;5015521;28;20413;-66
2022/09/03 05:32:34;;;;;;;3.53;3.43;;;;;;;;;;5015485;28;20404;-65
2022/09/03 05:35:01;;;;;;;4.17;3.80;;;;;;;;;;5015482;28;20402;-65
2022/09/03 05:37:27;;;;;;;5.80;3.67;;;;;;;;;;5015488;28;20388;-70
2022/09/03 05:39:53;;;;;;;3.70;3.47;;;;;;;;;;5015229;28;20540;-70
2022/09/03 05:42:20;;;;;;;3.27;3.07;;;;;;;;;;5015393;28;20413;-64
2022/09/03 05:44:48;;;;;;;3.80;3.50;;;;;;;;;;5015240;28;20404;-66
2022/09/03 05:47:14;;;;;;;4.40;4.20;;;;;;;;;;5015226;28;20401;-66
2022/09/03 05:49:40;;;;;;;4.60;4.10;;;;;;;;;;5015233;28;20892;-66
2022/09/03 05:52:07;;;;;;;4.03;3.90;;;;;;;;;;5014635;28;20481;-66
2022/09/03 05:54:33;;;;;;;11.73;8.20;;;;;;;;;;5015121;28;20402;-68
2022/09/03 05:56:59;;;;;;;4.53;4.27;;;;;;;;;;5030269;28;20521;-67
2022/09/03 05:59:26;;;;;;;16.97;8.83;;;;;;;;;;5014924;28;20524;-67
2022/09/03 06:01:51;;;;;;;10.03;9.23;;;;;;;;;;5014955;28;20385;-67
2022/09/03 06:04:18;;;;;;;6.77;6.37;;;;;;;;;;5014885;28;20439;-67
2022/09/03 06:06:45;;;;;;;4.50;4.20;;;;;;;;;;5014990;28;20409;-66
2022/09/03 06:09:16;;;;;;;4.50;4.23;;;;;;;;;;5014913;28;20411;-69
2022/09/03 06:11:42;;;;;;;5.10;4.70;;;;;;;;;;5014791;28;20887;-65
2022/09/03 06:14:10;;;;;;;3.97;3.80;;;;;;;;;;5014794;28;20506;-64
2022/09/03 06:16:38;;;;;;;4.73;4.33;;;;;;;;;;5014984;28;20428;-64
2022/09/03 06:19:08;;;;;;;5.30;4.77;;;;;;;;;;5014513;28;20416;-66
2022/09/03 06:21:35;;;;;;;5.43;5.00;;;;;;;;;;5014484;28;20824;-66
2022/09/03 06:24:01;;;;;;;4.83;4.53;;;;;;;;;;5014448;28;20890;-67
2022/09/03 06:26:28;;;;;;;5.07;4.50;;;;;;;;;;5014403;28;20445;-73
2022/09/03 06:28:55;;;;;;;4.57;4.23;;;;;;;;;;5014461;28;20788;-71
2022/09/03 06:31:21;;;;;;;4.70;4.40;;;;;;;;;;5014316;28;20901;-67
2022/09/03 06:33:47;;;;;;;4.33;4.17;;;;;;;;;;5014519;28;20469;-74
2022/09/03 06:36:14;;;;;;;6.43;4.47;;;;;;;;;;5014224;28;20414;-69
2022/09/03 06:38:41;;;;;;;5.10;4.73;;;;;;;;;;5014286;28;20883;-70
2022/09/03 06:41:09;;;;;;;6.60;4.47;;;;;;;;;;5014090;28;20485;-69
2022/09/03 06:43:36;;;;;;;7.20;4.47;;;;;;;;;;5014124;28;20455;-69
2022/09/03 06:46:04;;;;;;;9.80;5.67;;;;;;;;;;5014363;28;20514;-67
2022/09/03 06:48:31;;;;;;;5.30;4.80;;;;;;;;;;5014142;28;20414;-67
2022/09/03 06:50:58;;;;;;;4.83;4.37;;;;;;;;;;5014087;28;20410;-67
2022/09/03 06:53:25;;;;;;;4.63;4.20;;;;;;;;;;5013981;28;20524;-66
2022/09/03 06:55:57;;;;;;;3.97;3.83;;;;;;;;;;5014043;28;20404;-66
2022/09/03 06:58:24;;;;;;;4.90;4.60;;;;;;;;;;5014081;28;20869;-68
2022/09/03 07:00:51;;;;;;;4.63;4.07;;;;;;;;;;5014056;28;20493;-67
2022/09/03 07:03:17;;;;;;;4.13;3.83;;;;;;;;;;5013986;28;20406;-65
2022/09/03 07:05:43;;;;;;;3.80;3.70;;;;;;;;;;5013495;28;20407;-66
2022/09/03 07:08:10;;;;;;;4.10;4.00;;;;;;;;;;5013926;28;20398;-67
2022/09/03 07:10:37;;;;;;;4.70;3.30;;;;;;;;;;5013825;28;20472;-67
2022/09/03 07:13:05;;;;;;;4.40;3.43;;;;;;;;;;5013760;28;20409;-69
2022/09/03 07:15:31;;;;;;;4.40;3.87;;;;;;;;;;5028987;28;20488;-68
2022/09/03 07:17:57;;;;;;;6.13;3.63;;;;;;;;;;5013940;28;20737;-68
2022/09/03 07:20:23;;;;;;;4.17;3.97;;;;;;;;;;5013646;28;20511;-68
2022/09/03 07:22:49;;;;;;;3.10;3.00;;;;;;;;;;5013521;28;20402;-71
2022/09/03 07:25:15;;;;;;;2.80;2.80;;;;;;;;;;5013646;28;20409;-67
2022/09/03 07:27:41;;;;;;;2.90;2.77;;;;;;;;;;5013698;28;20460;-67
2022/09/03 07:30:09;;;;;;;2.80;2.60;;;;;;;;;;5013704;28;20878;-68
2022/09/03 07:32:39;;;;;;;2.47;2.37;;;;;;;;;;5013826;28;20407;-67
2022/09/03 07:35:05;;;;;;;2.80;2.63;;;;;;;;;;5013938;28;20411;-67
2022/09/03 07:37:32;;;;;;;4.73;2.83;;;;;;;;;;5013870;28;20415;-67
2022/09/03 07:39:58;;;;;;;4.73;2.40;;;;;;;;;;5013499;28;20547;-66
2022/09/03 07:42:26;;;;;;;2.70;2.50;;;;;;;;;;5013533;28;20405;-68
2022/09/03 07:44:52;;;;;;;2.47;2.30;;;;;;;;;;5013781;28;20468;-67
2022/09/03 07:47:19;;;;;;;7.90;2.53;;;;;;;;;;5013685;28;20551;-69
2022/09/03 07:49:45;;;;;;;2.77;2.57;;;;;;;;;;5013458;28;20956;-67
2022/09/03 07:52:11;;;;;;;2.60;2.50;;;;;;;;;;5013289;28;20465;-67
2022/09/03 07:54:37;;;;;;;2.37;2.37;;;;;;;;;;5013476;28;20405;-66
2022/09/03 07:57:04;;;;;;;4.00;2.23;;;;;;;;;;5013434;28;20402;-66
2022/09/03 07:59:30;;;;;;;2.03;2.03;;;;;;;;;;5013351;28;20557;-66
2022/09/03 08:01:56;;;;;;;2.07;1.93;;;;;;;;;;5013560;28;20495;-67
2022/09/03 08:04:22;;;;;;;2.40;2.30;;;;;;;;;;5013387;28;20399;-66
2022/09/03 08:06:48;;;;;;;2.20;2.10;;;;;;;;;;5013340;28;20404;-67
2022/09/03 08:09:14;;;;;;;2.00;2.00;;;;;;;;;;5013524;28;20414;-66
2022/09/03 08:11:42;;;;;;;2.77;2.53;;;;;;;;;;5013251;28;20395;-66
2022/09/03 08:14:09;;;;;;;2.40;2.30;;;;;;;;;;5013318;28;20399;-66
2022/09/03 08:16:36;;;;;;;2.43;2.00;;;;;;;;;;5015677;28;20495;-66
2022/09/03 08:19:03;;;;;;;2.20;2.17;;;;;;;;;;5016762;28;20884;-66
2022/09/03 08:21:29;;;;;;;1.67;1.67;;;;;;;;;;5016832;28;20410;-66
2022/09/03 08:24:01;;;;;;;2.43;2.33;;;;;;;;;;5017077;28;20762;-66
2022/09/03 08:26:27;;;;;;;2.30;2.20;;;;;;;;;;5016993;28;20417;-67
2022/09/03 08:28:53;;;;;;;2.73;2.40;;;;;;;;;;5016721;28;20403;-69
2022/09/03 08:31:21;;;;;;;2.23;2.03;;;;;;;;;;5016751;28;20419;-67
2022/09/03 08:33:48;;;;;;;1.90;1.90;;;;;;;;;;5016625;28;20404;-68
2022/09/03 08:36:18;;;;;;;2.23;2.23;;;;;;;;;;5016519;28;20412;-68
2022/09/03 08:38:45;;;;;;;2.30;2.23;;;;;;;;;;5016548;28;20415;-69
2022/09/03 08:41:20;;;;;;;1.83;1.73;;;;;;;;;;5016434;28;20554;-66
2022/09/03 08:43:55;;;;;;;2.40;2.30;;;;;;;;;;5016691;28;20418;-66
2022/09/03 08:46:24;;;;;;;2.37;2.27;;;;;;;;;;5016304;28;20510;-66
2022/09/03 08:48:51;;;;;;;2.77;2.67;;;;;;;;;;5016412;28;20391;-66
2022/09/03 08:51:20;;;;;;;2.37;2.37;;;;;;;;;;5016208;28;20432;-66
2022/09/03 08:53:48;;;;;;;5.47;2.10;;;;;;;;;;5016297;28;20511;-66
2022/09/03 08:56:20;;;;;;;2.47;2.40;;;;;;;;;;5016210;28;20935;-66
2022/09/03 08:58:46;;;;;;;2.30;2.20;;;;;;;;;;5016209;28;20408;-66
2022/09/03 09:01:23;;;;;;;2.63;2.53;;;;;;;;;;5015838;28;20570;-66
2022/09/03 09:03:52;;;;;;;2.17;2.07;;;;;;;;;;5015992;28;20462;-66
2022/09/03 09:06:36;;;;;;;2.20;2.10;;;;;;;;;;5016239;28;20782;-66
2022/09/03 09:09:16;;;;;;;2.63;2.53;;;;;;;;;;5015898;28;20772;-66
2022/09/03 09:11:42;;;;;;;2.10;2.00;;;;;;;;;;5015654;28;20418;-66
2022/09/03 09:14:31;;;;;;;2.30;2.30;;;;;;;;;;5015708;28;20491;-67
2022/09/03 09:17:15;;;;;;;2.30;2.00;;;;;;;;;;5017681;28;20432;-69
2022/09/03 09:20:04;;;;;;;1.67;1.63;;;;;;;;;;5015524;28;20473;-67
2022/09/03 09:22:34;;;;;;;2.20;2.10;;;;;;;;;;5015384;28;20842;-67
2022/09/03 09:25:04;;;;;;;2.10;2.10;;;;;;;;;;5015399;28;20400;-66
2022/09/03 09:27:31;;;;;;;2.00;2.00;;;;;;;;;;5015040;28;20414;-66
2022/09/03 09:30:00;;;;;;;1.90;1.90;;;;;;;;;;5015351;28;20455;-66
2022/09/03 09:32:26;;;;;;;2.10;2.10;;;;;;;;;;5030450;28;20773;-66
2022/09/03 09:34:53;;;;;;;3.13;1.97;;;;;;;;;;5015341;28;20419;-66
2022/09/03 09:37:20;;;;;;;2.10;2.10;;;;;;;;;;5015533;28;20408;-67
2022/09/03 09:39:55;;;;;;;2.20;1.60;;;;;;;;;;5015276;28;20796;-67
2022/09/03 09:42:21;;;;;;;3.20;1.90;;;;;;;;;;5015360;28;20404;-67
2022/09/03 09:44:47;;;;;;;26.17;4.50;;;;;;;;;;5015267;28;20386;-66
2022/09/03 09:47:28;;;;;;;2.73;1.77;;;;;;;;;;5015262;28;20407;-66
2022/09/03 09:49:56;;;;;;;2.33;2.23;;;;;;;;;;5015252;28;20488;-66
2022/09/03 09:52:24;;;;;;;2.20;2.10;;;;;;;;;;5014994;28;20465;-66
2022/09/03 09:54:51;;;;;;;6.40;2.50;;;;;;;;;;5015117;28;20540;-68
2022/09/03 09:57:25;;;;;;;2.20;2.20;;;;;;;;;;5015130;28;20469;-67
2022/09/03 10:00:24;;;;;;;3.13;2.40;;;;;;;;;;5015019;28;20832;-66
2022/09/03 10:02:55;;;;;;;2.97;2.77;;;;;;;;;;5024450;28;20500;-66
2022/09/03 10:05:25;;;;;;;9.33;3.73;;;;;;;;;;5014901;28;20402;-68
2022/09/03 10:07:58;;;;;;;3.60;3.30;;;;;;;;;;5014972;28;20413;-66
2022/09/03 10:10:25;;;;;;;3.80;3.60;;;;;;;;;;5014831;28;20520;-67
2022/09/03 10:13:04;;;;;;;4.03;3.70;;;;;;;;;;5014983;28;20416;-68
2022/09/03 10:15:35;;;;;;;3.73;3.40;;;;;;;;;;5015028;28;20457;-66
2022/09/03 10:18:26;;;;;;;3.97;3.67;;;;;;;;;;5014713;28;20401;-67
2022/09/03 10:20:58;;;;;;;6.67;3.10;;;;;;;;;;5014216;28;20831;-67
2022/09/03 10:23:29;;;;;;;3.27;3.00;;;;;;;;;;5014483;28;20401;-66
2022/09/03 10:26:06;;;;;;;3.73;3.43;;;;;;;;;;5014169;28;20492;-67
2022/09/03 10:28:33;;;;;;;4.13;2.60;;;;;;;;;;5014748;28;20874;-68
2022/09/03 10:31:14;;;;;;;4.50;2.73;;;;;;;;;;5014325;28;20406;-66
2022/09/03 10:34:00;;;;;;;2.97;2.23;;;;;;;;;;5014382;28;20411;-67
2022/09/03 10:36:26;;;;;;;3.23;2.17;;;;;;;;;;5014301;28;20400;-68
2022/09/03 10:39:02;;;;;;;2.83;2.37;;;;;;;;;;5014257;28;20423;-69
2022/09/03 10:41:28;;;;;;;8.67;1.83;;;;;;;;;;5014367;28;20431;-68
2022/09/03 10:44:09;;;;;;;1.70;1.60;;;;;;;;;;5014220;28;20404;-68
2022/09/03 10:46:47;;;;;;;1.83;1.50;;;;;;;;;;5014273;28;20879;-68
2022/09/03 10:49:20;;;;;;;1.73;1.47;;;;;;;;;;5014172;28;20408;-68
2022/09/03 10:51:52;;;;;;;2.50;1.50;;;;;;;;;;5013909;28;20976;-68
2022/09/03 10:54:26;;;;;;;3.33;1.83;;;;;;;;;;5014235;28;20752;-69
2022/09/03 10:56:52;;;;;;;1.50;1.50;;;;;;;;;;5014320;28;20434;-68
2022/09/03 10:59:27;;;;;;;1.50;1.50;;;;;;;;;;5014020;28;20456;-69
2022/09/03 11:02:10;;;;;;;1.97;1.40;;;;;;;;;;5013962;28;20437;-68
2022/09/03 11:04:43;;;;;;;1.70;1.60;;;;;;;;;;5014012;28;20402;-68
2022/09/03 11:07:12;;;;;;;1.57;1.50;;;;;;;;;;5014094;28;20401;-68
2022/09/03 11:09:40;;;;;;;1.40;1.40;;;;;;;;;;5013857;28;20439;-68
2022/09/03 11:12:09;;;;;;;1.77;1.70;;;;;;;;;;5013876;28;20400;-69
2022/09/03 11:14:39;;;;;;;1.40;1.40;;;;;;;;;;5013886;28;20467;-68
2022/09/03 11:17:09;;;;;;;1.37;1.37;;;;;;;;;;5013836;28;20976;-68
2022/09/03 11:19:46;;;;;;;1.50;1.40;;;;;;;;;;5013779;28;20871;-69
2022/09/03 11:22:16;;;;;;;1.27;1.27;;;;;;;;;;5013787;28;20438;-69
2022/09/03 11:24:44;;;;;;;5.07;1.23;;;;;;;;;;5014022;28;20421;-68
2022/09/03 11:27:29;;;;;;;1.40;1.40;;;;;;;;;;5013691;28;20415;-68
2022/09/03 11:30:05;;;;;;;1.07;1.00;;;;;;;;;;5013645;28;20487;-69
2022/09/03 11:32:51;;;;;;;1.63;1.23;;;;;;;;;;5013703;28;20471;-70
2022/09/03 11:35:28;;;;;;;1.17;1.00;;;;;;;;;;5013723;28;20481;-68
2022/09/03 11:37:57;;;;;;;0.90;0.90;;;;;;;;;;5013635;28;20405;-69
2022/09/03 11:40:29;;;;;;;0.90;0.90;;;;;;;;;;5013518;28;20465;-69
2022/09/03 11:43:04;;;;;;;1.07;1.07;;;;;;;;;;5013614;28;20412;-69
2022/09/03 11:45:30;;;;;;;1.20;1.20;;;;;;;;;;5013535;28;20913;-69
2022/09/03 11:47:56;;;;;;;0.93;0.80;;;;;;;;;;5013524;28;20406;-68
2022/09/03 11:50:33;;;;;;;0.70;0.70;;;;;;;;;;5014443;28;20446;-72
2022/09/03 11:53:08;;;;;;;0.70;0.70;;;;;;;;;;5017112;28;20814;-68
2022/09/03 11:55:49;;;;;;;1.90;0.83;;;;;;;;;;5017166;28;20445;-69
2022/09/03 11:58:23;;;;;;;1.10;1.10;;;;;;;;;;5017599;28;20436;-68
2022/09/03 12:00:53;;;;;;;0.80;0.80;;;;;;;;;;5017192;28;20521;-68
2022/09/03 12:03:22;;;;;;;0.80;0.80;;;;;;;;;;5017258;28;20802;-68
2022/09/03 12:05:51;;;;;;;0.60;0.60;;;;;;;;;;5017244;28;20812;-68
2022/09/03 12:08:27;;;;;;;0.70;0.70;;;;;;;;;;5017106;28;20395;-69
2022/09/03 12:10:59;;;;;;;0.50;0.50;;;;;;;;;;5017089;28;20431;-67
2022/09/03 12:13:43;;;;;;;1.17;0.70;;;;;;;;;;5017056;28;20454;-69
2022/09/03 12:16:15;;;;;;;0.70;0.70;;;;;;;;;;5016912;28;20888;-67
2022/09/03 12:18:42;;;;;;;0.60;0.60;;;;;;;;;;5016977;28;20434;-67
2022/09/03 12:21:09;;;;;;;0.50;0.50;;;;;;;;;;5016892;28;20471;-67
2022/09/03 12:23:49;;;;;;;0.60;0.60;;;;;;;;;;5016841;28;20499;-68
2022/09/03 12:26:26;;;;;;;0.60;0.60;;;;;;;;;;5016873;28;20395;-70
2022/09/03 12:28:54;;;;;;;0.90;0.60;;;;;;;;;;5016817;28;20408;-66
2022/09/03 12:31:22;;;;;;;1.17;0.60;;;;;;;;;;5016746;28;20403;-68
2022/09/03 12:34:08;;;;;;;0.50;0.50;;;;;;;;;;5016508;28;20404;-69
2022/09/03 12:36:39;;;;;;;0.60;0.60;;;;;;;;;;5016383;28;20466;-67
2022/09/03 12:39:29;;;;;;;0.80;0.60;;;;;;;;;;5016485;28;20410;-70
2022/09/03 12:41:56;;;;;;;0.80;0.80;;;;;;;;;;5018412;28;20443;-67
2022/09/03 12:44:30;;;;;;;0.40;0.40;;;;;;;;;;5016346;28;20423;-68
2022/09/03 12:47:02;;;;;;;0.70;0.53;;;;;;;;;;5016327;28;20425;-69
2022/09/03 12:49:33;;;;;;;0.63;0.63;;;;;;;;;;5016463;28;20748;-68
2022/09/03 12:52:02;;;;;;;0.60;0.60;;;;;;;;;;5016167;28;20951;-70
2022/09/03 12:54:29;;;;;;;0.60;0.60;;;;;;;;;;5016330;28;20404;-69
2022/09/03 12:56:57;;;;;;;0.70;0.70;;;;;;;;;;5016237;28;20395;-68
2022/09/03 12:59:24;;;;;;;0.80;0.80;;;;;;;;;;5016124;28;20460;-68
2022/09/03 13:01:52;;;;;;;0.90;0.90;;;;;;;;;;5015074;28;20413;-67
2022/09/03 13:04:20;;;;;;;0.90;0.90;;;;;;;;;;5016100;28;20387;-67
2022/09/03 13:06:56;;;;;;;0.90;0.90;;;;;;;;;;5016110;28;20412;-67
2022/09/03 13:09:28;;;;;;;1.00;1.00;;;;;;;;;;5015979;28;20402;-68
2022/09/03 13:11:55;;;;;;;0.83;0.83;;;;;;;;;;5015847;28;20396;-68
2022/09/03 13:14:21;;;;;;;0.83;0.83;;;;;;;;;;5015817;28;20536;-69
2022/09/03 13:16:55;;;;;;;0.93;0.93;;;;;;;;;;5015842;28;20399;-67
2022/09/03 13:19:29;;;;;;;2.10;1.10;;;;;;;;;;5015690;28;20873;-68
2022/09/03 13:22:34;;;;;;;1.00;1.00;;;;;;;;;;5015706;28;20885;-67
2022/09/03 13:25:08;;;;;;;0.80;0.80;;;;;;;;;;5033404;28;20527;-67
2022/09/03 13:27:41;;;;;;;1.23;1.13;;;;;;;;;;5023987;28;20432;-66
2022/09/03 13:30:15;;;;;;;2.10;0.90;;;;;;;;;;5015685;28;20502;-70
2022/09/03 13:32:50;;;;;;;1.13;1.13;;;;;;;;;;5015591;28;20874;-68
2022/09/03 13:35:23;;;;;;;1.10;1.10;;;;;;;;;;5015484;28;20404;-68
2022/09/03 13:37:55;;;;;;;1.00;1.00;;;;;;;;;;5015579;28;20752;-69
2022/09/03 13:40:21;;;;;;;0.73;0.73;;;;;;;;;;5015248;28;20560;-67
2022/09/03 13:42:56;;;;;;;0.70;0.70;;;;;;;;;;5015248;28;20429;-68
2022/09/03 13:45:29;;;;;;;0.70;0.70;;;;;;;;;;5015376;28;20178;-68
2022/09/03 13:50:46;;;;;;;2.60;0.80;;;;;;;;;;5015186;28;20468;-67
2022/09/03 13:53:23;;;;;;;0.80;0.80;;;;;;;;;;5015163;28;20468;-68
2022/09/03 13:55:53;;;;;;;0.63;0.63;;;;;;;;;;5015149;28;20963;-69
2022/09/03 13:58:28;;;;;;;0.70;0.70;;;;;;;;;;5015170;28;20397;-67
2022/09/03 14:01:12;;;;;;;1.60;0.90;;;;;;;;;;5014902;28;20463;-69
2022/09/03 14:03:46;;;;;;;0.70;0.70;;;;;;;;;;5015016;28;20404;-67
2022/09/03 14:06:31;;;;;;;0.93;0.93;;;;;;;;;;5014943;28;20414;-68
2022/09/03 14:09:12;;;;;;;0.77;0.77;;;;;;;;;;5014885;28;20485;-69
2022/09/03 14:11:57;;;;;;;1.00;1.00;;;;;;;;;;5014812;28;20412;-70
2022/09/03 14:14:36;;;;;;;1.27;1.27;;;;;;;;;;5014578;28;20413;-68
2022/09/03 14:17:11;;;;;;;1.17;1.07;;;;;;;;;;5014792;28;20442;-69
2022/09/03 14:19:46;;;;;;;1.00;1.00;;;;;;;;;;5014690;28;20555;-73
2022/09/03 14:22:15;;;;;;;1.17;1.07;;;;;;;;;;5014642;28;20396;-70
2022/09/03 14:24:47;;;;;;;1.10;1.10;;;;;;;;;;5014954;28;20423;-73
2022/09/03 14:27:22;;;;;;;1.23;1.23;;;;;;;;;;5014607;28;20482;-68
2022/09/03 14:29:59;;;;;;;1.20;1.20;;;;;;;;;;5014547;28;20400;-69
2022/09/03 14:32:25;;;;;;;1.27;1.17;;;;;;;;;;5014463;28;20398;-68
2022/09/03 14:35:10;;;;;;;1.20;1.20;;;;;;;;;;5014555;28;20513;-68
2022/09/03 14:37:54;;;;;;;1.57;1.40;;;;;;;;;;5014508;28;20196;-69
2022/09/03 14:40:26;;;;;;;1.43;1.43;;;;;;;;;;5014604;28;20476;-73
2022/09/03 14:43:12;;;;;;;2.30;1.43;;;;;;;;;;5014636;28;20397;-69
2022/09/03 14:45:50;;;;;;;1.40;1.33;;;;;;;;;;5014324;28;20512;-67
2022/09/03 14:48:22;;;;;;;1.50;1.50;;;;;;;;;;5014261;28;20407;-68
2022/09/03 14:51:06;;;;;;;1.70;1.60;;;;;;;;;;5014265;28;20416;-72
2022/09/03 14:53:57;;;;;;;1.57;1.57;;;;;;;;;;5014140;28;20419;-72
2022/09/03 14:56:28;;;;;;;1.47;1.47;;;;;;;;;;5014132;28;20417;-72
2022/09/03 14:59:00;;;;;;;1.77;1.77;;;;;;;;;;5014190;28;20396;-68
2022/09/03 15:01:32;;;;;;;5.90;1.73;;;;;;;;;;5014076;28;20464;-74
2022/09/03 15:04:16;;;;;;;2.97;2.90;;;;;;;;;;5014019;28;20402;-71
2022/09/03 15:06:48;;;;;;;1.80;1.70;;;;;;;;;;5013997;28;20393;-73
2022/09/03 15:09:14;;;;;;;2.00;1.60;;;;;;;;;;5013782;28;20404;-70